Карточка аэропорта UATT

Внимание!
Информация на этой странице в стадии наполнения.
Если вы не увидели какой-то информации, или заметили неточность - пожалуйста сообщите нам!
Спасибо!
Команда RU-STAFF
Название аэропортаАктобе
Название аэропорта (англ.)Aktobe
Превышение738 ft. (224.9 m.)
Координаты50°14.748', 57°12.402'
Высота перехода10000ft
Эшелон переходаFL120, QNH<733:FL130
Коды ответчика3440-3447, 3540-3547
Зона ОрВДАктобе РПИ (UATT)
Данные METARUATT 241530Z 04005MPS CAVOK 11/M06 Q1024 NOSIG RMK QFE748/0997
Проноз погоды (TAF)UATT 241100Z 2412/2512 02007MPS 9999 BKN011 TX19/2511Z TN01/2501Z TEMPO 2412/2418 04012MPS BECMG 2418/2420 34002MPS TEMPO 2420/2502 3100 BR BECMG 2506/2508 32007MPS
NOTAMshow/hide NOTAM
AWOS   TABLE

Информация о ВПП

ВПП Длина ВПП (м.) Покрытие Курс ВПП Частота ILS
313202Бетон315111.7
133202Бетон135111.7

Диспетчерские позиции




Спутниковое изображение